KXE weather

P C Pelser Airport
Klerksdorp, North-West, South Africa

Public forecast

Using degrees Celsius for public forecast. Weather courtesy of forecast.io.

Closest aviation weather report (METAR) to P C Pelser Airport

Report is more than 6 hours old.

Closest report is Potchefstroom Airport, 22.9 nm (42.4 km) ENE. Retrieved 2013/07/12 07:00 UTC (7 years ago):

FAPS 120700Z AUTO 08002KT //// // ////// 11/// Q1032

Closest aviation forecast (TAF) to P C Pelser Airport

Closest forecast is Lanseria Airport, 85.8 nm (158.8 km) NE. Retrieved 2020-06-04 00:00 UTC (6 hours ago):

TAF FALA 032200Z 0400/0424 VRB03KT CAVOK TX22/0412Z TN05/0405Z BECMG 0408/0410 36008KT BECMG 0416/0418 VRB03KT